• Join FlightAware (Why Join?)
  • Login
  • US Flag 
11:15PM EDT


 

Airport Tracker/Info


-or-


 

Live Flight TrackerFlight Track Log ✈ N678MB ✈ 25-Apr-2013 ✈ KHAO - KGAI

Flight Track Log - Related Links

Times and Time Zones

All times are in EDT time to prevent confusion due to time zone crossing. See the N678MB flight status page for this flight to view local times or setup timezone preferences in your user account.

Time Position Orientation Groundspeed Altitude Reporting Facility
EDT Latitude Longitude Course Direction KTS MPH feet Rate Location/Type
05:48PM 39.3667 -84.5333 270° West 121 139 1,400  Level Cincinnati TRACON
05:48PM 39.3667 -84.5667 270° West 137 158 2,500 2,220 Climbing Cincinnati TRACON
05:49PM 39.3944 -84.5947 322° Northwest 192 221 4,000 2,220 Climbing Indianapolis Center
05:50PM 39.4147 -84.5219 70° East 273 314 6,600 2,760 Climbing Indianapolis Center
05:51PM 39.3675 -84.4800 146° Southeast 215 247 9,800 2,760 Climbing Indianapolis Center
05:52PM 39.3167 -84.4356 146° Southeast 216 249 12,400 2,340 Climbing Indianapolis Center
05:53PM 39.2633 -84.3847 144° Southeast 231 266 14,700 2,160 Climbing Indianapolis Center
05:54PM 39.1961 -84.3219 144° Southeast 250 288 16,900 1,440 Climbing Indianapolis Center
05:55PM 39.1225 -84.2581 146° Southeast 317 365 17,700 1,740 Climbing Indianapolis Center
05:56PM 39.0592 -84.1939 142° Southeast 289 333 20,500 2,220 Climbing Indianapolis Center
05:57PM 38.9964 -84.1261 140° Southeast 291 335 22,400 1,680 Climbing Indianapolis Center
05:58PM 38.9314 -84.0561 140° Southeast 302 348 24,000 1,500 Climbing Indianapolis Center
05:59PM 38.8664 -83.9783 137° Southeast 318 366 25,600 1,500 Climbing Indianapolis Center
06:01PM 38.8078 -83.7156 106° East 356 410 28,700 1,320 Climbing Indianapolis Center
06:02PM 38.8361 -83.5997 73° East 337 388 29,800 1,020 Climbing Indianapolis Center
06:03PM 38.8686 -83.4831 70° East 343 395 30,900 1,020 Climbing Indianapolis Center
06:04PM 38.9022 -83.3636 70° East 352 405 32,000 1,200 Climbing Indianapolis Center
06:05PM 38.9353 -83.2444 70° East 353 406 33,400 1,260 Climbing Indianapolis Center
06:06PM 38.9678 -83.1264 70° East 329 379 34,700 720 Climbing Indianapolis Center
06:07PM 38.9992 -83.0139 70° East 330 380 35,000 120 Climbing Indianapolis Center
06:08PM 39.0339 -82.8928 70° East 354 407 35,000  Level Indianapolis Center
06:10PM 39.0700 -82.7608 71° East 383 441 35,000  Level Indianapolis Center
06:11PM 39.1064 -82.6247 71° East 398 458 35,000  Level Indianapolis Center
06:12PM 39.1528 -82.4572 70° East 409 471 35,000  Level Indianapolis Center
06:13PM 39.1906 -82.3175 71° East 411 473 35,000  Level Indianapolis Center
06:14PM 39.2283 -82.1772 71° East 412 474 35,000  Level Indianapolis Center
06:15PM 39.2661 -82.0375 71° East 411 473 35,000  Level Indianapolis Center
06:16PM 39.3028 -81.8994 71° East 406 467 35,000  Level Indianapolis Center
06:17PM 39.3397 -81.7592 71° East 409 471 35,000  Level Indianapolis Center
06:18PM 39.3769 -81.6208 71° East 406 467 35,000  Level Indianapolis Center
06:19PM 39.4200 -81.4533 72° East 407 468 35,000  Level Indianapolis Center
06:20PM 39.4497 -81.3222 74° East 408 470 35,000  Level Cleveland Center
06:21PM 39.4611 -81.1772 84° East 408 470 35,000  Level Cleveland Center
06:22PM 39.4742 -81.0294 83° East 408 470 35,000 -300 Level Cleveland Center
06:23PM 39.4853 -80.8789 84° East 408 470 34,400 -540 Descending Cleveland Center
06:24PM 39.4958 -80.7231 85° East 419 482 34,000 -360 Descending Cleveland Center
06:24PM 39.4950 -80.7033 93° East 437 503 34,000  Level Indianapolis Center
06:25PM 39.5086 -80.5669 83° East 427 491 34,000  Level Cleveland Center
06:26PM 39.5208 -80.4161 84° East 427 491 34,000  Level Cleveland Center
06:27PM 39.5247 -80.2628 88° East 422 486 34,000  Level Cleveland Center
06:28PM 39.5181 -80.1147 93° East 422 486 34,000  Level Cleveland Center
06:29PM 39.5108 -79.9764 94° East 421 484 34,000 -180 Level Washington Center
06:30PM 39.5039 -79.8253 93° East 421 484 33,700 -1,320 Descending Washington Center
06:31PM 39.4967 -79.6714 93° East 426 490 31,400 -2,400 Descending Washington Center
06:32PM 39.4875 -79.5094 94° East 431 496 28,900 -2,580 Descending Washington Center
06:33PM 39.4800 -79.3533 94° East 431 496 26,300 -2,520 Descending Washington Center
06:34PM 39.4686 -79.1806 95° East 436 502 23,900 -2,220 Descending Washington Center
06:35PM 39.4583 -79.0322 95° East 429 494 21,900 -2,040 Descending Washington Center
06:36PM 39.4517 -78.8919 93° East 410 472 19,900 -2,040 Descending Washington Center
06:37PM 39.4450 -78.7600 94° East 389 448 17,900 -1,920 Descending Washington Center
06:38PM 39.4356 -78.6333 95° East 365 420 16,100 -1,920 Descending Washington Center
06:39PM 39.4283 -78.5122 94° East 352 405 14,100 -2,040 Descending Washington Center
06:41PM 39.4150 -78.2806 94° East 327 376 10,100 -1,740 Descending Washington Center
06:42PM 39.4067 -78.1756 96° East 306 352 9,000 -840 Descending Washington Center
06:43PM 39.3986 -78.0706 96° East 294 338 8,500 -900 Descending Washington Center
06:44PM 39.3922 -77.9656 94° East 294 338 7,300 -840 Descending Washington Center
06:45PM 39.3861 -77.8633 94° East 294 338 6,900 -660 Descending Washington Center
06:46PM 39.3961 -77.7642 83° East 288 331 6,000 -1,020 Descending Washington Center
06:47PM 39.4039 -77.6786 83° East 276 318 4,900 -600 Descending Washington Center
06:48PM 39.4158 -77.5847 81° East 270 311 4,900 -120 Level Washington Center
06:50PM 39.4500 -77.3500 79° East 259 298 4,500 -240 Descending Potomac TRACON
06:51PM 39.4000 -77.2667 128° Southeast 217 250 4,100 -480 Descending Potomac TRACON
06:52PM 39.3500 -77.2500 166° South 204 235 3,600 -600 Descending Potomac TRACON
06:53PM 39.3000 -77.2333 166° South 228 262 3,000 -840 Descending Potomac TRACON
06:54PM 39.2500 -77.2000 153° Southeast 232 267 2,100 -480 Descending Potomac TRACON
06:55PM 39.2000 -77.1667 153° Southeast 195 224 2,100 -300 Level Potomac TRACON
06:56PM 39.1667 -77.1333 142° Southeast 148 170 1,600 -600 Descending Potomac TRACON
06:57PM 39.1500 -77.1667 237° Southwest 133 153 900 -720 Descending Potomac TRACON
06:59PM 39.1667 -77.1500 38° Northeast  Level FlightAware Approximate
07:06PM 39.1683 -77.1660 38° Northeast  Level Estimated
07:07PM 39.1683 -77.1660 38° Northeast  Level Estimated
07:08PM 39.1683 -77.1660 38° Northeast  Level Estimated